createdAt,value
2019-02-17T00:01:39.390Z,6.80
2019-02-17T00:03:43.055Z,6.90
2019-02-17T00:07:43.667Z,6.90
2019-02-17T00:09:47.326Z,6.80
2019-02-17T00:11:51.038Z,6.70
2019-02-17T00:13:54.702Z,6.70
2019-02-17T00:15:58.370Z,6.70
2019-02-17T00:18:02.108Z,6.70
2019-02-17T00:20:08.102Z,6.70
2019-02-17T00:22:11.927Z,6.60
2019-02-17T00:24:15.651Z,6.60
2019-02-17T00:26:19.311Z,6.60
2019-02-17T00:28:23.126Z,6.70
2019-02-17T00:30:26.807Z,6.60
2019-02-17T00:32:30.508Z,6.50
2019-02-17T00:34:34.351Z,6.50
2019-02-17T00:36:38.015Z,6.50
2019-02-17T00:38:41.747Z,6.40
2019-02-17T00:40:45.423Z,6.40
2019-02-17T00:42:49.133Z,6.50
2019-02-17T00:44:52.867Z,6.40
2019-02-17T00:46:56.545Z,6.30
2019-02-17T00:49:00.231Z,6.20
2019-02-17T00:51:03.994Z,6.20
2019-02-17T00:53:07.791Z,6.20
2019-02-17T00:55:11.453Z,6.10
2019-02-17T00:57:15.110Z,6.10
2019-02-17T00:59:18.801Z,6.00
2019-02-17T01:01:22.488Z,6.10
2019-02-17T01:03:26.170Z,6.20
2019-02-17T01:05:29.830Z,6.20
2019-02-17T01:07:33.534Z,6.20
2019-02-17T01:09:37.205Z,6.30
2019-02-17T01:11:40.931Z,6.20
2019-02-17T01:13:44.630Z,6.10
2019-02-17T01:15:48.308Z,6.20
2019-02-17T01:17:51.993Z,6.30
2019-02-17T01:19:55.783Z,6.20
2019-02-17T01:21:59.456Z,6.10
2019-02-17T01:24:04.014Z,6.20
2019-02-17T01:26:07.675Z,6.10
2019-02-17T01:28:11.352Z,6.00
2019-02-17T01:30:15.324Z,6.00
2019-02-17T01:32:18.978Z,6.00
2019-02-17T01:34:22.698Z,6.10
2019-02-17T01:36:26.350Z,6.10
2019-02-17T01:38:30.015Z,5.80
2019-02-17T01:40:33.702Z,5.80
2019-02-17T01:42:37.484Z,5.80
2019-02-17T01:44:41.167Z,6.00
2019-02-17T01:46:44.843Z,5.90
2019-02-17T01:48:48.537Z,5.70
2019-02-17T01:50:52.224Z,5.60
2019-02-17T01:52:55.882Z,5.60
2019-02-17T01:54:59.582Z,5.60
2019-02-17T01:57:03.248Z,5.80
2019-02-17T01:59:06.918Z,5.80
2019-02-17T02:01:10.610Z,5.80
2019-02-17T02:03:14.262Z,5.80
2019-02-17T02:05:17.954Z,5.80
2019-02-17T02:07:21.851Z,5.80
2019-02-17T02:09:25.524Z,5.70
2019-02-17T02:11:29.275Z,5.70
2019-02-17T02:13:32.935Z,5.60
2019-02-17T02:15:36.667Z,5.70
2019-02-17T02:17:40.334Z,5.70
2019-02-17T02:19:44.091Z,5.60
2019-02-17T02:21:47.829Z,5.50
2019-02-17T02:23:51.479Z,5.60
2019-02-17T02:25:55.202Z,5.60
2019-02-17T02:27:58.872Z,5.50
2019-02-17T02:30:02.540Z,5.50
2019-02-17T02:32:06.236Z,5.60
2019-02-17T02:34:09.900Z,5.50
2019-02-17T02:36:13.590Z,5.40
2019-02-17T02:38:17.259Z,5.40
2019-02-17T02:40:20.976Z,5.20
2019-02-17T02:42:24.640Z,5.20
2019-02-17T02:44:28.360Z,5.30
2019-02-17T02:46:32.074Z,5.30
2019-02-17T02:48:35.742Z,5.30
2019-02-17T02:50:39.442Z,5.60
2019-02-17T02:52:43.104Z,5.60
2019-02-17T02:54:46.769Z,5.60
2019-02-17T02:56:50.754Z,5.50
2019-02-17T02:58:54.407Z,5.60
2019-02-17T03:00:58.075Z,5.50
2019-02-17T03:03:01.773Z,5.50
2019-02-17T03:05:06.948Z,5.50
2019-02-17T03:07:10.638Z,5.40
2019-02-17T03:09:14.298Z,5.30
2019-02-17T03:11:18.012Z,5.30
2019-02-17T03:13:21.881Z,5.30
2019-02-17T03:15:25.535Z,5.30
2019-02-17T03:17:29.224Z,5.30
2019-02-17T03:19:32.990Z,5.30
2019-02-17T03:21:36.713Z,5.30
2019-02-17T03:23:40.374Z,5.40
2019-02-17T03:25:45.323Z,5.40
2019-02-17T03:27:49.218Z,5.40
2019-02-17T03:30:04.011Z,5.40
2019-02-17T03:31:58.376Z,5.30
2019-02-17T03:34:02.094Z,5.30
2019-02-17T03:36:05.762Z,5.20
2019-02-17T03:38:09.555Z,5.20
2019-02-17T03:40:13.310Z,5.10
2019-02-17T03:42:17.047Z,5.10
2019-02-17T03:44:21.331Z,5.10
2019-02-17T03:46:25.080Z,5.10
2019-02-17T03:48:30.400Z,4.90
2019-02-17T03:50:34.150Z,4.90
2019-02-17T03:52:38.616Z,4.80
2019-02-17T03:54:42.300Z,4.80
2019-02-17T03:56:46.048Z,4.80
2019-02-17T03:58:49.726Z,4.80
2019-02-17T04:00:53.418Z,4.70
2019-02-17T04:02:57.076Z,4.80
2019-02-17T04:05:00.757Z,4.70
2019-02-17T04:07:04.412Z,4.60
2019-02-17T04:09:08.314Z,4.60
2019-02-17T04:11:11.970Z,4.70
2019-02-17T04:13:15.717Z,4.80
2019-02-17T04:15:19.419Z,4.80
2019-02-17T04:17:23.088Z,4.80
2019-02-17T04:19:26.834Z,4.60
2019-02-17T04:21:30.513Z,4.50
2019-02-17T04:23:34.173Z,4.60
2019-02-17T04:25:37.847Z,4.70
2019-02-17T04:27:41.518Z,4.70
2019-02-17T04:29:45.234Z,4.70
2019-02-17T04:31:48.901Z,4.70
2019-02-17T04:33:52.694Z,4.70
2019-02-17T04:35:56.393Z,4.70
2019-02-17T04:38:00.052Z,4.60
2019-02-17T04:40:04.247Z,4.50
2019-02-17T04:42:07.945Z,4.70
2019-02-17T04:44:11.614Z,4.70
2019-02-17T04:46:15.310Z,4.70
2019-02-17T04:48:18.990Z,4.70
2019-02-17T04:50:22.759Z,4.70
2019-02-17T04:52:26.464Z,4.70
2019-02-17T04:54:30.177Z,4.60
2019-02-17T04:56:33.906Z,4.60
2019-02-17T04:58:37.670Z,4.70
2019-02-17T05:00:41.387Z,4.70
2019-02-17T05:02:45.065Z,4.80
2019-02-17T05:04:48.784Z,4.80
2019-02-17T05:06:52.476Z,4.80
2019-02-17T05:08:56.158Z,4.60
2019-02-17T05:10:59.848Z,4.60
2019-02-17T05:13:03.502Z,4.50
2019-02-17T05:15:08.580Z,4.30
2019-02-17T05:17:12.268Z,4.30
2019-02-17T05:19:15.951Z,4.30
2019-02-17T05:21:19.707Z,4.20
2019-02-17T05:23:23.368Z,4.40
2019-02-17T05:25:27.132Z,4.40
2019-02-17T05:27:30.823Z,4.40
2019-02-17T05:29:34.557Z,4.30
2019-02-17T05:31:38.256Z,4.20
2019-02-17T05:33:41.914Z,4.30
2019-02-17T05:35:45.589Z,4.30
2019-02-17T05:37:49.268Z,4.40
2019-02-17T05:39:52.933Z,4.20
2019-02-17T05:41:56.651Z,4.30
2019-02-17T05:44:00.445Z,4.40
2019-02-17T05:46:04.099Z,4.50
2019-02-17T05:48:07.784Z,4.50
2019-02-17T05:50:11.467Z,4.60
2019-02-17T05:52:15.156Z,4.40
2019-02-17T05:54:18.848Z,4.20
2019-02-17T05:56:22.615Z,4.10
2019-02-17T05:58:26.355Z,3.90
2019-02-17T06:00:31.294Z,3.80
2019-02-17T06:02:35.042Z,3.50
2019-02-17T06:04:38.788Z,3.80
2019-02-17T06:06:42.442Z,3.80
2019-02-17T06:08:46.130Z,3.70
2019-02-17T06:10:49.790Z,3.60
2019-02-17T06:12:53.514Z,3.70
2019-02-17T06:14:57.207Z,3.80
2019-02-17T06:17:00.882Z,3.90
2019-02-17T06:19:04.571Z,4.00
2019-02-17T06:21:08.232Z,3.90
2019-02-17T06:23:11.888Z,4.10
2019-02-17T06:25:15.588Z,4.40
2019-02-17T06:27:19.503Z,4.50
2019-02-17T06:29:23.229Z,4.50
2019-02-17T06:31:26.894Z,4.60
2019-02-17T06:33:32.078Z,4.60
2019-02-17T06:35:35.746Z,4.70
2019-02-17T06:37:39.397Z,4.60
2019-02-17T06:39:43.095Z,4.70
2019-02-17T06:41:46.769Z,4.70
2019-02-17T06:43:50.569Z,4.70
2019-02-17T06:45:54.250Z,4.70
2019-02-17T06:47:57.889Z,4.60
2019-02-17T06:50:01.607Z,4.60
2019-02-17T06:52:05.253Z,4.70
2019-02-17T06:54:08.932Z,4.60
2019-02-17T06:56:19.897Z,4.50
2019-02-17T06:58:23.565Z,4.30
2019-02-17T07:00:28.882Z,4.30
2019-02-17T07:02:32.554Z,4.20
2019-02-17T07:04:47.002Z,4.20
2019-02-17T07:06:52.299Z,4.10
2019-02-17T07:08:55.974Z,4.10
2019-02-17T07:10:59.668Z,4.10
2019-02-17T07:13:03.396Z,4.30
2019-02-17T07:15:07.111Z,4.50
2019-02-17T07:17:10.855Z,4.50
2019-02-17T07:19:14.520Z,4.40
2019-02-17T07:21:18.210Z,4.40
2019-02-17T07:23:21.986Z,4.30
2019-02-17T07:25:30.000Z,4.10
2019-02-17T07:27:31.071Z,4.00
2019-02-17T07:29:34.742Z,4.20
2019-02-17T07:31:38.422Z,4.40
2019-02-17T07:33:42.091Z,4.50
2019-02-17T07:35:45.828Z,4.40
2019-02-17T07:37:49.489Z,4.50
2019-02-17T07:39:53.172Z,4.60
2019-02-17T07:41:56.966Z,4.70
2019-02-17T07:44:00.636Z,4.90
2019-02-17T07:46:04.317Z,4.90
2019-02-17T07:48:07.975Z,4.80
2019-02-17T07:50:11.638Z,4.70
2019-02-17T07:52:15.352Z,4.70
2019-02-17T07:54:19.019Z,4.60
2019-02-17T07:56:22.719Z,4.40
2019-02-17T07:58:26.375Z,4.40
2019-02-17T08:00:30.097Z,4.60
2019-02-17T08:02:33.795Z,5.00
2019-02-17T08:04:37.511Z,5.20
2019-02-17T08:06:41.194Z,5.10
2019-02-17T08:08:44.909Z,5.20
2019-02-17T08:10:48.582Z,5.30
2019-02-17T08:12:52.314Z,5.50
2019-02-17T08:14:56.034Z,5.70
2019-02-17T08:16:59.737Z,6.00
2019-02-17T08:19:03.428Z,6.10
2019-02-17T08:21:07.091Z,6.20
2019-02-17T08:23:10.947Z,6.20
2019-02-17T08:25:21.897Z,6.20
2019-02-17T08:27:20.646Z,6.20
2019-02-17T08:29:24.319Z,6.20
2019-02-17T08:31:28.000Z,6.10
2019-02-17T08:33:31.684Z,6.10
2019-02-17T08:35:35.358Z,6.20
2019-02-17T08:37:39.133Z,6.30
2019-02-17T08:39:42.850Z,6.30
2019-02-17T08:41:46.512Z,6.20
2019-02-17T08:43:50.282Z,6.20
2019-02-17T08:45:53.963Z,6.30
2019-02-17T08:47:57.629Z,6.40
2019-02-17T08:50:01.317Z,6.40
2019-02-17T08:52:05.004Z,6.40
2019-02-17T08:54:08.767Z,6.40
2019-02-17T08:56:12.544Z,6.40
2019-02-17T08:58:16.354Z,6.40
2019-02-17T09:00:20.022Z,6.40
2019-02-17T09:02:23.686Z,6.40
2019-02-17T09:04:28.848Z,6.50
2019-02-17T09:06:32.514Z,6.60
2019-02-17T09:08:36.346Z,6.60
2019-02-17T09:10:40.003Z,6.70
2019-02-17T09:12:43.682Z,6.80
2019-02-17T09:14:47.381Z,6.80
2019-02-17T09:16:52.366Z,6.90
2019-02-17T09:18:56.040Z,6.90
2019-02-17T09:20:59.846Z,7.00
2019-02-17T09:23:03.541Z,7.00
2019-02-17T09:25:09.551Z,7.10
2019-02-17T09:27:13.318Z,7.10
2019-02-17T09:29:17.204Z,7.10
2019-02-17T09:31:20.902Z,7.10
2019-02-17T09:33:24.599Z,7.20
2019-02-17T09:35:28.290Z,7.20
2019-02-17T09:37:31.945Z,7.30
2019-02-17T09:39:35.625Z,7.40
2019-02-17T09:41:39.307Z,7.40
2019-02-17T09:43:43.000Z,7.50
2019-02-17T09:45:49.147Z,7.60
2019-02-17T09:47:52.914Z,7.60
2019-02-17T09:49:56.682Z,7.70
2019-02-17T09:52:00.345Z,7.70
2019-02-17T09:54:04.013Z,7.80
2019-02-17T09:56:07.706Z,7.70
2019-02-17T09:58:12.215Z,7.70
2019-02-17T10:00:16.496Z,7.90
2019-02-17T10:02:26.493Z,8.00
2019-02-17T10:04:25.614Z,8.10
2019-02-17T10:06:29.302Z,8.10
2019-02-17T10:08:32.968Z,8.30
2019-02-17T10:10:36.907Z,8.30
2019-02-17T10:12:40.649Z,8.30
2019-02-17T10:14:44.317Z,8.30
2019-02-17T10:16:48.018Z,8.40
2019-02-17T10:18:51.679Z,8.50
2019-02-17T10:20:55.373Z,8.60
2019-02-17T10:22:59.039Z,8.70
2019-02-17T10:25:02.712Z,8.70
2019-02-17T10:27:06.408Z,8.80
2019-02-17T10:29:10.087Z,8.90
2019-02-17T10:31:13.784Z,9.00
2019-02-17T10:33:17.437Z,9.00
2019-02-17T10:35:21.106Z,9.10
2019-02-17T10:37:24.820Z,9.10
2019-02-17T10:39:28.480Z,9.20
2019-02-17T10:41:32.204Z,9.30
2019-02-17T10:43:35.854Z,9.40
2019-02-17T10:45:39.524Z,9.40
2019-02-17T10:47:43.211Z,9.50
2019-02-17T10:49:46.874Z,9.60
2019-02-17T10:51:50.550Z,9.60
2019-02-17T10:53:54.252Z,9.70
2019-02-17T10:55:57.931Z,9.70
2019-02-17T10:58:01.724Z,9.80
2019-02-17T11:00:19.276Z,9.90
2019-02-17T11:02:22.985Z,10.00
2019-02-17T11:04:26.668Z,10.00
2019-02-17T11:06:30.413Z,10.00
2019-02-17T11:08:34.090Z,10.00
2019-02-17T11:10:37.762Z,10.10
2019-02-17T11:12:41.452Z,10.20
2019-02-17T11:14:45.146Z,10.30
2019-02-17T11:16:48.828Z,10.40
2019-02-17T11:18:52.542Z,10.50
2019-02-17T11:20:56.207Z,10.60
2019-02-17T11:22:59.903Z,10.60
2019-02-17T11:25:03.566Z,10.70
2019-02-17T11:27:07.246Z,10.80
2019-02-17T11:29:10.936Z,10.80
2019-02-17T11:31:14.615Z,10.90
2019-02-17T11:33:18.437Z,10.80
2019-02-17T11:35:22.134Z,10.80
2019-02-17T11:37:25.801Z,10.90
2019-02-17T11:39:29.500Z,11.10
2019-02-17T11:41:33.168Z,11.30
2019-02-17T11:43:36.862Z,11.40
2019-02-17T11:45:40.624Z,11.40
2019-02-17T11:47:44.366Z,11.50
2019-02-17T11:49:48.066Z,11.50
2019-02-17T11:51:51.755Z,12.30
2019-02-17T11:53:55.417Z,11.60
2019-02-17T11:55:59.199Z,11.70
2019-02-17T11:58:02.886Z,11.80
2019-02-17T12:00:12.250Z,11.90
2019-02-17T12:02:24.732Z,11.80
2019-02-17T12:04:21.326Z,11.90
2019-02-17T12:06:31.228Z,12.00
2019-02-17T12:08:34.873Z,12.10
2019-02-17T12:10:38.703Z,11.80
2019-02-17T12:12:42.375Z,12.10
2019-02-17T12:14:46.082Z,12.20
2019-02-17T12:16:49.742Z,12.40
2019-02-17T12:18:54.994Z,12.60
2019-02-17T12:21:00.362Z,12.60
2019-02-17T12:23:05.607Z,12.60
2019-02-17T12:25:09.365Z,12.70
2019-02-17T12:27:17.154Z,12.70
2019-02-17T12:29:28.394Z,12.60
2019-02-17T12:31:32.769Z,12.70
2019-02-17T12:33:36.430Z,12.80
2019-02-17T12:35:40.111Z,13.00
2019-02-17T12:37:43.808Z,13.00
2019-02-17T12:39:47.553Z,13.10
2019-02-17T12:41:51.274Z,13.20
2019-02-17T12:43:54.947Z,13.30
2019-02-17T12:45:58.637Z,13.50
2019-02-17T12:48:02.335Z,13.50
2019-02-17T12:50:08.792Z,13.60
2019-02-17T12:52:12.582Z,13.50
2019-02-17T12:54:16.244Z,13.60
2019-02-17T12:56:19.959Z,13.60
2019-02-17T12:58:29.922Z,13.70
2019-02-17T13:00:29.010Z,13.80
2019-02-17T13:02:32.810Z,13.90
2019-02-17T13:04:36.474Z,14.00
2019-02-17T13:06:40.166Z,14.10
2019-02-17T13:08:43.870Z,13.90
2019-02-17T13:10:47.527Z,13.90
2019-02-17T13:12:51.211Z,13.60
2019-02-17T13:14:54.882Z,13.90
2019-02-17T13:16:58.574Z,14.10
2019-02-17T13:19:02.338Z,14.30
2019-02-17T13:21:06.066Z,14.50
2019-02-17T13:23:09.774Z,14.50
2019-02-17T13:25:15.339Z,14.60
2019-02-17T13:27:19.030Z,14.50
2019-02-17T13:29:22.726Z,14.20
2019-02-17T13:31:26.410Z,14.10
2019-02-17T13:33:38.839Z,14.30
2019-02-17T13:35:35.468Z,14.40
2019-02-17T13:37:39.155Z,14.60
2019-02-17T13:39:42.855Z,14.80
2019-02-17T13:41:46.637Z,15.00
2019-02-17T13:43:50.331Z,15.10
2019-02-17T13:45:53.999Z,15.20
2019-02-17T13:47:57.710Z,15.00
2019-02-17T13:50:01.407Z,14.90
2019-02-17T13:52:05.200Z,14.90
2019-02-17T13:54:09.123Z,15.10
2019-02-17T13:56:12.795Z,15.20
2019-02-17T13:58:16.488Z,15.30
2019-02-17T14:00:20.399Z,15.40
2019-02-17T14:02:24.063Z,15.50
2019-02-17T14:04:27.855Z,15.30
2019-02-17T14:06:31.532Z,15.50
2019-02-17T14:08:35.189Z,15.70
2019-02-17T14:10:38.893Z,15.70
2019-02-17T14:12:42.579Z,15.70
2019-02-17T14:14:47.845Z,15.70
2019-02-17T14:16:51.530Z,15.70
2019-02-17T14:18:56.837Z,15.70
2019-02-17T14:21:00.519Z,15.40
2019-02-17T14:23:06.152Z,15.40
2019-02-17T14:25:11.138Z,15.30
2019-02-17T14:27:18.115Z,16.30
2019-02-17T14:29:21.923Z,15.60
2019-02-17T14:31:25.626Z,15.70
2019-02-17T14:33:29.313Z,15.70
2019-02-17T14:35:33.106Z,15.80
2019-02-17T14:37:38.251Z,15.80
2019-02-17T14:39:41.942Z,15.90
2019-02-17T14:41:45.704Z,16.00
2019-02-17T14:43:49.557Z,16.00
2019-02-17T14:45:53.386Z,16.00
2019-02-17T14:47:57.116Z,16.10
2019-02-17T14:50:00.907Z,15.90
2019-02-17T14:52:04.610Z,16.00
2019-02-17T14:54:08.273Z,15.80
2019-02-17T14:56:11.958Z,15.80
2019-02-17T14:58:15.636Z,15.60
2019-02-17T15:00:19.305Z,15.70
2019-02-17T15:02:23.126Z,15.80
2019-02-17T15:04:26.807Z,16.00
2019-02-17T15:06:30.493Z,16.10
2019-02-17T15:08:34.149Z,16.20
2019-02-17T15:10:37.812Z,16.30
2019-02-17T15:12:41.512Z,16.30
2019-02-17T15:14:45.174Z,16.30
2019-02-17T15:16:48.872Z,16.30
2019-02-17T15:18:52.539Z,16.20
2019-02-17T15:20:56.219Z,16.20
2019-02-17T15:22:59.905Z,16.30
2019-02-17T15:25:03.889Z,16.30
2019-02-17T15:27:07.648Z,16.30
2019-02-17T15:29:11.302Z,16.20
2019-02-17T15:31:14.987Z,16.30
2019-02-17T15:33:18.867Z,16.30
2019-02-17T15:35:22.597Z,16.30
2019-02-17T15:37:26.322Z,16.30
2019-02-17T15:39:30.004Z,16.40
2019-02-17T15:41:33.777Z,16.40
2019-02-17T15:43:37.506Z,16.40
2019-02-17T15:45:41.187Z,16.50
2019-02-17T15:47:44.913Z,16.50
2019-02-17T15:49:48.574Z,16.40
2019-02-17T15:51:52.338Z,16.40
2019-02-17T15:53:56.023Z,16.30
2019-02-17T15:55:59.790Z,16.30
2019-02-17T15:58:03.561Z,16.10
2019-02-17T16:00:10.434Z,15.80
2019-02-17T16:02:14.099Z,15.70
2019-02-17T16:04:17.797Z,15.60
2019-02-17T16:06:21.453Z,15.40
2019-02-17T16:08:25.179Z,15.30
2019-02-17T16:10:28.874Z,15.40
2019-02-17T16:12:32.858Z,14.90
2019-02-17T16:14:36.554Z,14.90
2019-02-17T16:16:40.372Z,15.10
2019-02-17T16:18:44.137Z,15.00
2019-02-17T16:20:47.797Z,14.80
2019-02-17T16:22:51.471Z,14.60
2019-02-17T16:24:55.311Z,14.50
2019-02-17T16:26:58.990Z,14.50
2019-02-17T16:29:02.682Z,14.50
2019-02-17T16:31:06.345Z,14.50
2019-02-17T16:33:10.010Z,14.50
2019-02-17T16:35:13.700Z,14.50
2019-02-17T16:37:17.368Z,14.50
2019-02-17T16:39:21.106Z,14.40
2019-02-17T16:41:24.881Z,14.30
2019-02-17T16:43:28.603Z,14.20
2019-02-17T16:45:32.311Z,14.10
2019-02-17T16:47:35.987Z,14.10
2019-02-17T16:49:39.679Z,13.90
2019-02-17T16:51:43.375Z,13.70
2019-02-17T16:53:47.055Z,13.60
2019-02-17T16:55:50.843Z,13.60
2019-02-17T16:57:54.534Z,13.50
2019-02-17T16:59:58.207Z,13.50
2019-02-17T17:02:01.925Z,13.40
2019-02-17T17:04:05.606Z,13.30
2019-02-17T17:06:09.311Z,13.30
2019-02-17T17:08:13.114Z,13.20
2019-02-17T17:10:16.776Z,13.10
2019-02-17T17:12:20.497Z,12.90
2019-02-17T17:14:24.159Z,12.90
2019-02-17T17:16:27.963Z,12.70
2019-02-17T17:18:31.632Z,12.60
2019-02-17T17:20:35.295Z,12.60
2019-02-17T17:22:38.996Z,12.60
2019-02-17T17:24:42.772Z,12.50
2019-02-17T17:26:46.551Z,12.40
2019-02-17T17:28:50.241Z,12.30
2019-02-17T17:30:53.930Z,12.20
2019-02-17T17:32:57.626Z,12.00
2019-02-17T17:35:01.323Z,11.80
2019-02-17T17:37:05.025Z,11.70
2019-02-17T17:39:08.781Z,11.60
2019-02-17T17:41:12.524Z,11.70
2019-02-17T17:43:16.211Z,11.70
2019-02-17T17:45:20.992Z,11.70
2019-02-17T17:47:24.701Z,11.70
2019-02-17T17:49:28.480Z,11.60
2019-02-17T17:51:32.152Z,11.60
2019-02-17T17:53:35.852Z,11.50
2019-02-17T17:55:39.514Z,11.50
2019-02-17T17:57:43.206Z,11.40
2019-02-17T17:59:46.878Z,11.30
2019-02-17T18:01:50.553Z,11.20
2019-02-17T18:03:54.256Z,11.20
2019-02-17T18:05:57.930Z,10.90
2019-02-17T18:08:01.730Z,10.80
2019-02-17T18:10:08.534Z,10.70
2019-02-17T18:12:12.206Z,10.80
2019-02-17T18:14:15.904Z,10.80
2019-02-17T18:16:19.586Z,10.70
2019-02-17T18:18:24.716Z,10.80
2019-02-17T18:20:28.621Z,10.60
2019-02-17T18:22:32.300Z,10.60
2019-02-17T18:24:36.006Z,10.60
2019-02-17T18:26:39.659Z,10.60
2019-02-17T18:28:43.392Z,10.50
2019-02-17T18:30:47.075Z,10.40
2019-02-17T18:32:50.763Z,10.40
2019-02-17T18:34:54.440Z,10.30
2019-02-17T18:36:58.118Z,10.30
2019-02-17T18:39:01.824Z,10.20
2019-02-17T18:41:05.495Z,10.10
2019-02-17T18:43:09.183Z,10.00
2019-02-17T18:45:13.852Z,9.90
2019-02-17T18:47:19.734Z,10.00
2019-02-17T18:49:23.136Z,9.90
2019-02-17T18:51:26.862Z,9.80
2019-02-17T18:53:30.583Z,9.80
2019-02-17T18:55:34.239Z,9.80
2019-02-17T18:57:38.004Z,9.80
2019-02-17T18:59:41.734Z,9.90
2019-02-17T19:01:45.406Z,9.90
2019-02-17T19:03:49.098Z,9.90
2019-02-17T19:05:52.979Z,9.80
2019-02-17T19:07:56.645Z,9.80
2019-02-17T19:10:00.344Z,9.80
2019-02-17T19:12:04.000Z,9.70
2019-02-17T19:14:07.698Z,9.70
2019-02-17T19:16:11.383Z,9.60
2019-02-17T19:18:15.048Z,9.50
2019-02-17T19:20:33.319Z,9.40
2019-02-17T19:22:37.000Z,9.30
2019-02-17T19:24:40.694Z,9.20
2019-02-17T19:26:44.362Z,9.10
2019-02-17T19:28:48.039Z,9.20
2019-02-17T19:30:51.801Z,9.20
2019-02-17T19:32:55.761Z,9.20
2019-02-17T19:34:59.450Z,9.20
2019-02-17T19:37:03.146Z,9.20
2019-02-17T19:39:06.797Z,9.20
2019-02-17T19:41:10.504Z,9.20
2019-02-17T19:43:14.171Z,9.10
2019-02-17T19:45:18.754Z,9.10
2019-02-17T19:47:22.451Z,9.10
2019-02-17T19:49:26.111Z,9.10
2019-02-17T19:51:29.801Z,9.00
2019-02-17T19:53:33.477Z,9.00
2019-02-17T19:55:37.155Z,9.00
2019-02-17T19:57:40.856Z,9.00
2019-02-17T19:59:44.526Z,9.00
2019-02-17T20:01:48.402Z,8.90
2019-02-17T20:03:59.474Z,8.90
2019-02-17T20:06:07.506Z,8.90
2019-02-17T20:08:11.175Z,8.80
2019-02-17T20:10:14.829Z,8.70
2019-02-17T20:12:18.579Z,8.60
2019-02-17T20:14:22.262Z,8.60
2019-02-17T20:16:25.950Z,8.70
2019-02-17T20:18:29.655Z,8.60
2019-02-17T20:20:33.347Z,8.70
2019-02-17T20:22:37.062Z,8.70
2019-02-17T20:24:40.752Z,8.70
2019-02-17T20:26:44.430Z,8.70
2019-02-17T20:28:48.144Z,8.60
2019-02-17T20:30:51.814Z,8.60
2019-02-17T20:32:55.681Z,8.50
2019-02-17T20:34:59.355Z,8.50
2019-02-17T20:37:03.065Z,8.50
2019-02-17T20:39:06.822Z,8.50
2019-02-17T20:41:10.479Z,8.40
2019-02-17T20:43:16.636Z,8.40
2019-02-17T20:45:19.584Z,8.40
2019-02-17T20:47:23.386Z,8.40
2019-02-17T20:49:27.067Z,8.30
2019-02-17T20:51:30.771Z,8.20
2019-02-17T20:53:34.468Z,8.20
2019-02-17T20:55:38.135Z,8.10
2019-02-17T20:57:41.849Z,8.10
2019-02-17T20:59:45.550Z,8.10
2019-02-17T21:01:49.223Z,8.10
2019-02-17T21:03:52.900Z,8.10
2019-02-17T21:05:59.813Z,8.10
2019-02-17T21:08:03.519Z,8.10
2019-02-17T21:10:12.081Z,8.10
2019-02-17T21:12:15.733Z,8.10
2019-02-17T21:14:19.428Z,8.00
2019-02-17T21:16:23.102Z,8.00
2019-02-17T21:18:26.797Z,8.00
2019-02-17T21:20:30.953Z,7.90
2019-02-17T21:22:34.619Z,7.90
2019-02-17T21:24:38.314Z,7.90
2019-02-17T21:26:42.085Z,7.90
2019-02-17T21:28:45.873Z,8.00
2019-02-17T21:30:50.636Z,8.00
2019-02-17T21:32:54.491Z,7.90
2019-02-17T21:34:58.186Z,7.90
2019-02-17T21:37:01.844Z,7.90
2019-02-17T21:39:06.529Z,7.80
2019-02-17T21:41:10.211Z,7.70
2019-02-17T21:43:13.870Z,7.70
2019-02-17T21:45:19.032Z,7.70
2019-02-17T21:47:22.697Z,7.70
2019-02-17T21:49:26.387Z,7.70
2019-02-17T21:51:30.055Z,7.60
2019-02-17T21:53:33.727Z,7.60
2019-02-17T21:55:39.873Z,7.60
2019-02-17T21:57:44.710Z,7.70
2019-02-17T21:59:48.405Z,7.60
2019-02-17T22:01:54.939Z,7.50
2019-02-17T22:03:58.600Z,7.50
2019-02-17T22:06:02.310Z,7.50
2019-02-17T22:08:06.473Z,7.50
2019-02-17T22:10:12.977Z,7.50
2019-02-17T22:12:16.706Z,7.40
2019-02-17T22:14:20.578Z,7.40
2019-02-17T22:16:24.266Z,7.20
2019-02-17T22:18:29.689Z,7.20
2019-02-17T22:20:33.375Z,7.20
2019-02-17T22:22:38.307Z,7.20
2019-02-17T22:24:41.978Z,7.30
2019-02-17T22:26:45.691Z,7.30
2019-02-17T22:28:49.494Z,7.40
2019-02-17T22:30:53.204Z,7.40
2019-02-17T22:32:56.870Z,7.40
2019-02-17T22:35:00.537Z,7.40
2019-02-17T22:37:04.236Z,7.40
2019-02-17T22:39:07.901Z,7.40
2019-02-17T22:41:11.561Z,7.30
2019-02-17T22:43:15.246Z,7.30
2019-02-17T22:45:18.909Z,7.30
2019-02-17T22:47:22.819Z,7.40
2019-02-17T22:49:26.483Z,7.40
2019-02-17T22:51:30.192Z,7.40
2019-02-17T22:53:43.088Z,7.30
2019-02-17T22:55:39.305Z,7.30
2019-02-17T22:57:43.018Z,7.20
2019-02-17T22:59:46.682Z,7.10
2019-02-17T23:01:50.493Z,7.10
2019-02-17T23:03:56.862Z,7.10
2019-02-17T23:06:00.513Z,6.90
2019-02-17T23:08:04.211Z,7.50
2019-02-17T23:10:08.773Z,6.90
2019-02-17T23:12:12.422Z,7.00
2019-02-17T23:14:16.109Z,7.00
2019-02-17T23:16:19.784Z,7.10
2019-02-17T23:18:23.464Z,7.10
2019-02-17T23:20:27.235Z,7.00
2019-02-17T23:22:31.039Z,7.00
2019-02-17T23:24:34.693Z,7.00
2019-02-17T23:26:38.363Z,7.00
2019-02-17T23:28:42.063Z,7.00
2019-02-17T23:30:45.758Z,7.10
2019-02-17T23:32:49.438Z,7.00
2019-02-17T23:34:53.229Z,6.90
2019-02-17T23:37:03.720Z,6.90
2019-02-17T23:39:02.311Z,6.80
2019-02-17T23:41:05.971Z,6.80
2019-02-17T23:43:09.656Z,6.80
2019-02-17T23:45:14.234Z,6.80
2019-02-17T23:47:17.903Z,6.60
2019-02-17T23:49:21.595Z,6.70
2019-02-17T23:51:25.330Z,6.70
2019-02-17T23:53:29.004Z,6.80
2019-02-17T23:55:32.803Z,6.80
2019-02-17T23:57:36.500Z,6.80
2019-02-17T23:59:40.169Z,6.80
